Time;durP1;ratioP1;P1;durP2;ratioP2;P2;SDS_P1;SDS_P2;PMS_P1;PMS_P2;Temp;Humidity;BMP_temperature;BMP_pressure;BME280_temperature;BME280_humidity;BME280_pressure;Samples;Min_cycle;Max_cycle;Signal;HPM_P1;HPM_P2
2023/11/03 00:01:00;;;;;;;2.13;1.90;;;;;;;;;;5071544;28;20225;-80
2023/11/03 00:03:29;;;;;;;2.00;1.90;;;;;;;;;;5071821;28;20201;-79
2023/11/03 00:05:57;;;;;;;1.60;1.50;;;;;;;;;;5071070;28;20588;-79
2023/11/03 00:08:24;;;;;;;2.10;1.63;;;;;;;;;;5069588;28;20205;-79
2023/11/03 00:10:51;;;;;;;2.10;1.63;;;;;;;;;;5070300;28;20197;-80
2023/11/03 00:13:18;;;;;;;2.93;2.10;;;;;;;;;;5062702;28;20205;-79
2023/11/03 00:15:44;;;;;;;2.10;1.83;;;;;;;;;;5071237;28;20205;-79
2023/11/03 00:18:12;;;;;;;1.60;1.50;;;;;;;;;;5071661;28;20201;-79
2023/11/03 00:20:40;;;;;;;2.10;1.87;;;;;;;;;;5071164;28;20220;-79
2023/11/03 00:23:07;;;;;;;2.17;1.80;;;;;;;;;;5071147;28;20201;-80
2023/11/03 00:25:34;;;;;;;2.53;1.67;;;;;;;;;;5071335;28;20611;-80
2023/11/03 00:28:02;;;;;;;2.10;1.90;;;;;;;;;;5071942;28;20209;-79
2023/11/03 00:30:30;;;;;;;3.10;2.10;;;;;;;;;;5071226;28;20205;-79
2023/11/03 00:32:57;;;;;;;4.20;1.90;;;;;;;;;;5070939;28;20205;-80
2023/11/03 00:35:25;;;;;;;2.57;2.37;;;;;;;;;;5057902;28;20219;-79
2023/11/03 00:37:53;;;;;;;3.23;2.10;;;;;;;;;;5071085;28;20205;-79
2023/11/03 00:40:20;;;;;;;3.07;2.10;;;;;;;;;;5071184;28;20221;-79
2023/11/03 00:42:47;;;;;;;2.20;2.00;;;;;;;;;;5070937;28;20209;-79
2023/11/03 00:45:14;;;;;;;1.93;1.73;;;;;;;;;;5071235;28;20212;-79
2023/11/03 00:47:41;;;;;;;2.13;1.90;;;;;;;;;;5071151;28;20227;-79
2023/11/03 00:50:09;;;;;;;3.23;1.93;;;;;;;;;;5071219;28;20279;-79
2023/11/03 00:52:37;;;;;;;1.70;1.60;;;;;;;;;;5070799;28;20231;-80
2023/11/03 00:55:06;;;;;;;2.13;1.50;;;;;;;;;;5070970;28;20201;-79
2023/11/03 00:57:36;;;;;;;1.73;1.63;;;;;;;;;;5071148;28;20228;-79
2023/11/03 01:00:05;;;;;;;2.50;1.80;;;;;;;;;;5070959;28;20263;-79
2023/11/03 01:02:32;;;;;;;2.47;1.77;;;;;;;;;;5070748;28;20205;-79
2023/11/03 01:04:58;;;;;;;2.13;1.63;;;;;;;;;;5071130;28;20204;-79
2023/11/03 01:07:25;;;;;;;4.60;2.00;;;;;;;;;;5070266;28;20208;-79
2023/11/03 01:09:54;;;;;;;1.93;1.83;;;;;;;;;;5070973;28;20209;-79
2023/11/03 01:12:21;;;;;;;2.80;1.80;;;;;;;;;;5070766;28;20208;-79
2023/11/03 01:14:50;;;;;;;2.30;2.10;;;;;;;;;;5070970;28;20232;-79
2023/11/03 01:17:18;;;;;;;1.90;1.80;;;;;;;;;;5070097;28;20280;-79
2023/11/03 01:19:45;;;;;;;2.63;2.10;;;;;;;;;;5071059;28;20220;-79
2023/11/03 01:22:12;;;;;;;5.33;1.97;;;;;;;;;;5070295;28;20292;-79
2023/11/03 01:24:40;;;;;;;2.30;2.10;;;;;;;;;;5070455;28;20207;-80
2023/11/03 01:27:09;;;;;;;2.33;2.13;;;;;;;;;;5070396;28;20295;-79
2023/11/03 01:29:37;;;;;;;2.63;2.27;;;;;;;;;;5070139;28;20216;-79
2023/11/03 01:32:04;;;;;;;1.87;1.77;;;;;;;;;;5070712;28;20641;-79
2023/11/03 01:34:31;;;;;;;2.87;2.53;;;;;;;;;;5070443;28;20597;-79
2023/11/03 01:36:58;;;;;;;3.93;2.13;;;;;;;;;;5069882;28;20228;-79
2023/11/03 01:39:25;;;;;;;3.83;1.90;;;;;;;;;;5069978;28;20702;-79
2023/11/03 01:41:52;;;;;;;4.60;2.10;;;;;;;;;;5070263;28;20197;-79
2023/11/03 01:44:20;;;;;;;2.97;2.10;;;;;;;;;;5070568;28;20196;-79
2023/11/03 01:46:47;;;;;;;3.40;2.13;;;;;;;;;;5069968;28;20671;-79
2023/11/03 01:49:14;;;;;;;2.40;2.20;;;;;;;;;;5070526;28;20209;-79
2023/11/03 01:51:42;;;;;;;2.40;2.20;;;;;;;;;;5069866;28;20715;-79
2023/11/03 01:54:09;;;;;;;6.57;3.13;;;;;;;;;;5070524;28;20213;-79
2023/11/03 01:56:37;;;;;;;3.77;2.67;;;;;;;;;;5070261;28;20259;-79
2023/11/03 01:59:06;;;;;;;3.13;2.90;;;;;;;;;;5070576;28;20254;-79
2023/11/03 02:01:35;;;;;;;3.60;3.00;;;;;;;;;;5056591;28;20667;-79
2023/11/03 02:04:01;;;;;;;7.00;3.07;;;;;;;;;;5070532;28;20278;-79
2023/11/03 02:06:28;;;;;;;5.17;4.17;;;;;;;;;;5070208;28;20683;-79
2023/11/03 02:08:55;;;;;;;6.27;4.43;;;;;;;;;;5070239;28;20205;-79
2023/11/03 02:11:28;;;;;;;8.00;4.03;;;;;;;;;;5070029;28;20680;-79
2023/11/03 02:13:55;;;;;;;9.13;4.07;;;;;;;;;;5069876;28;20201;-79
2023/11/03 02:16:23;;;;;;;9.37;5.10;;;;;;;;;;5069939;28;20209;-79
2023/11/03 02:18:51;;;;;;;6.77;5.10;;;;;;;;;;5070048;28;20596;-79
2023/11/03 02:21:18;;;;;;;9.10;5.20;;;;;;;;;;5070004;28;20715;-79
2023/11/03 02:23:46;;;;;;;11.17;5.23;;;;;;;;;;5069808;28;20664;-79
2023/11/03 02:26:13;;;;;;;8.03;4.50;;;;;;;;;;5070521;28;20216;-79
2023/11/03 02:28:39;;;;;;;8.40;4.57;;;;;;;;;;5070267;28;20201;-79
2023/11/03 02:31:06;;;;;;;4.57;4.13;;;;;;;;;;5070150;28;20205;-79
2023/11/03 02:33:33;;;;;;;8.50;4.57;;;;;;;;;;5069510;28;20599;-79
2023/11/03 02:36:00;;;;;;;10.27;4.73;;;;;;;;;;5070364;28;20239;-79
2023/11/03 02:38:26;;;;;;;7.93;4.67;;;;;;;;;;5069469;28;20201;-79
2023/11/03 02:40:55;;;;;;;17.63;5.43;;;;;;;;;;5073086;28;20228;-79
2023/11/03 02:43:22;;;;;;;14.27;5.33;;;;;;;;;;5072861;28;20619;-79
2023/11/03 02:45:49;;;;;;;18.60;6.37;;;;;;;;;;5073626;28;20201;-79
2023/11/03 02:48:17;;;;;;;13.47;6.90;;;;;;;;;;5060080;28;20216;-79
2023/11/03 02:50:43;;;;;;;13.93;6.80;;;;;;;;;;5072977;28;20237;-79
2023/11/03 02:53:11;;;;;;;16.60;6.83;;;;;;;;;;5073053;28;20565;-79
2023/11/03 02:55:37;;;;;;;16.67;7.20;;;;;;;;;;5073607;28;20204;-79
2023/11/03 02:58:05;;;;;;;14.20;7.33;;;;;;;;;;5072915;28;20680;-79
2023/11/03 03:00:32;;;;;;;19.17;7.83;;;;;;;;;;5073259;28;20228;-79
2023/11/03 03:03:01;;;;;;;15.87;7.37;;;;;;;;;;5073021;28;20212;-79
2023/11/03 03:05:27;;;;;;;16.67;8.10;;;;;;;;;;5073233;28;20251;-79
2023/11/03 03:07:54;;;;;;;13.60;7.47;;;;;;;;;;5072567;28;20642;-79
2023/11/03 03:10:21;;;;;;;20.37;10.73;;;;;;;;;;5072820;28;20209;-79
2023/11/03 03:12:48;;;;;;;20.50;10.03;;;;;;;;;;5059350;28;20208;-79
2023/11/03 03:15:16;;;;;;;23.30;10.80;;;;;;;;;;5073161;28;20201;-79
2023/11/03 03:17:43;;;;;;;20.10;10.93;;;;;;;;;;5072796;28;20286;-79
2023/11/03 03:20:10;;;;;;;22.10;11.53;;;;;;;;;;5072185;28;20201;-79
2023/11/03 03:22:37;;;;;;;25.93;11.40;;;;;;;;;;5060540;28;20596;-79
2023/11/03 03:25:05;;;;;;;20.90;11.80;;;;;;;;;;5072767;28;20205;-79
2023/11/03 03:27:31;;;;;;;23.20;11.57;;;;;;;;;;5072538;28;20201;-79
2023/11/03 03:29:58;;;;;;;26.70;12.10;;;;;;;;;;5072413;28;20205;-79
2023/11/03 03:32:27;;;;;;;25.27;12.40;;;;;;;;;;5071987;28;20397;-79
2023/11/03 03:34:53;;;;;;;29.17;12.33;;;;;;;;;;5072423;28;20228;-79
2023/11/03 03:37:20;;;;;;;19.93;10.57;;;;;;;;;;5072755;28;20258;-79
2023/11/03 03:39:47;;;;;;;23.27;10.50;;;;;;;;;;5072204;28;20209;-79
2023/11/03 03:42:14;;;;;;;18.87;9.73;;;;;;;;;;5072593;28;20294;-79
2023/11/03 03:44:41;;;;;;;19.97;10.43;;;;;;;;;;5072549;28;20291;-79
2023/11/03 03:47:09;;;;;;;29.23;12.03;;;;;;;;;;5072487;28;20205;-79
2023/11/03 03:49:37;;;;;;;25.77;11.90;;;;;;;;;;5072080;28;20234;-79
2023/11/03 03:52:06;;;;;;;21.93;10.50;;;;;;;;;;5071377;28;20221;-79
2023/11/03 03:54:33;;;;;;;24.63;11.03;;;;;;;;;;5072315;28;20231;-79
2023/11/03 03:57:00;;;;;;;27.27;11.70;;;;;;;;;;5072047;28;20209;-79
2023/11/03 03:59:27;;;;;;;25.70;11.50;;;;;;;;;;5071734;28;20197;-79
2023/11/03 04:01:53;;;;;;;29.47;11.27;;;;;;;;;;5071623;28;20229;-79
2023/11/03 04:04:21;;;;;;;32.27;11.73;;;;;;;;;;5071824;28;20197;-79
2023/11/03 04:06:49;;;;;;;32.97;13.20;;;;;;;;;;5071983;28;20675;-79
2023/11/03 04:09:16;;;;;;;33.97;13.33;;;;;;;;;;5068035;28;20271;-79
2023/11/03 04:11:42;;;;;;;32.20;12.27;;;;;;;;;;5062060;28;20201;-79
2023/11/03 04:14:09;;;;;;;29.30;13.30;;;;;;;;;;5071163;28;20205;-78
2023/11/03 04:16:36;;;;;;;37.63;13.43;;;;;;;;;;5070346;28;20212;-79
2023/11/03 04:19:04;;;;;;;36.57;13.03;;;;;;;;;;5069415;28;20733;-79
2023/11/03 04:21:31;;;;;;;33.93;12.57;;;;;;;;;;5061342;28;20233;-79
2023/11/03 04:23:59;;;;;;;29.93;10.60;;;;;;;;;;5055126;28;20197;-78
2023/11/03 04:26:26;;;;;;;35.20;13.10;;;;;;;;;;5052679;28;20214;-78
2023/11/03 04:28:52;;;;;;;29.67;12.83;;;;;;;;;;5054248;28;20213;-78
2023/11/03 04:31:19;;;;;;;38.07;13.30;;;;;;;;;;5052796;28;20623;-79
2023/11/03 04:33:46;;;;;;;30.63;12.80;;;;;;;;;;5068910;28;20209;-79
2023/11/03 04:36:13;;;;;;;28.27;12.83;;;;;;;;;;5071471;28;20699;-79
2023/11/03 04:38:40;;;;;;;27.00;13.50;;;;;;;;;;5067545;28;20673;-78
2023/11/03 04:41:11;;;;;;;30.03;12.90;;;;;;;;;;5069603;28;20224;-79
2023/11/03 04:43:40;;;;;;;34.37;12.47;;;;;;;;;;5059368;28;20209;-79
2023/11/03 04:46:08;;;;;;;25.87;12.23;;;;;;;;;;5071242;28;20288;-78
2023/11/03 04:48:35;;;;;;;27.53;12.23;;;;;;;;;;5070839;28;20212;-78
2023/11/03 04:51:03;;;;;;;28.13;12.47;;;;;;;;;;5070839;28;20281;-78
2023/11/03 04:53:29;;;;;;;24.23;10.70;;;;;;;;;;5070511;28;20219;-78
2023/11/03 04:55:57;;;;;;;25.70;14.33;;;;;;;;;;5071027;28;20205;-78
2023/11/03 04:58:27;;;;;;;26.00;12.37;;;;;;;;;;5070325;28;20204;-79
2023/11/03 05:00:54;;;;;;;28.80;11.70;;;;;;;;;;5071248;28;20247;-78
2023/11/03 05:03:21;;;;;;;30.10;13.40;;;;;;;;;;5070315;28;20632;-79
2023/11/03 05:05:48;;;;;;;31.13;11.63;;;;;;;;;;5058801;28;20194;-77
2023/11/03 05:08:14;;;;;;;25.27;12.53;;;;;;;;;;5068580;28;20212;-76
2023/11/03 05:10:42;;;;;;;22.07;11.77;;;;;;;;;;5068475;28;20192;-76
2023/11/03 05:13:09;;;;;;;23.37;11.57;;;;;;;;;;5068475;28;20261;-76
2023/11/03 05:15:39;;;;;;;25.60;12.90;;;;;;;;;;5069392;28;20201;-75
2023/11/03 05:18:06;;;;;;;32.43;16.97;;;;;;;;;;5069678;28;20279;-75
2023/11/03 05:20:32;;;;;;;30.97;16.47;;;;;;;;;;5069796;28;20204;-76
2023/11/03 05:22:59;;;;;;;25.37;13.50;;;;;;;;;;5069818;28;20221;-76
2023/11/03 05:25:26;;;;;;;27.50;12.90;;;;;;;;;;5070964;28;20205;-75
2023/11/03 05:27:53;;;;;;;28.73;15.60;;;;;;;;;;5070164;28;20204;-75
2023/11/03 05:30:21;;;;;;;24.53;14.83;;;;;;;;;;5070440;28;20205;-78
2023/11/03 05:32:49;;;;;;;22.47;12.60;;;;;;;;;;5070456;28;20201;-76
2023/11/03 05:35:16;;;;;;;23.30;12.60;;;;;;;;;;5070545;28;20216;-76
2023/11/03 05:37:43;;;;;;;19.23;11.73;;;;;;;;;;5070030;28;20215;-76
2023/11/03 05:40:12;;;;;;;22.33;12.80;;;;;;;;;;5065402;28;21270;-75
2023/11/03 05:42:39;;;;;;;25.03;12.00;;;;;;;;;;5062345;28;20229;-76
2023/11/03 05:45:07;;;;;;;20.10;12.83;;;;;;;;;;5070286;28;20212;-76
2023/11/03 05:47:34;;;;;;;33.53;18.13;;;;;;;;;;5069043;28;20704;-76
2023/11/03 05:50:03;;;;;;;24.47;15.53;;;;;;;;;;5069509;28;20278;-76
2023/11/03 05:52:30;;;;;;;21.80;13.97;;;;;;;;;;5069706;28;20197;-77
2023/11/03 05:54:57;;;;;;;24.43;16.43;;;;;;;;;;5069898;28;20674;-76
2023/11/03 05:57:23;;;;;;;22.83;13.10;;;;;;;;;;5069512;28;20197;-76
2023/11/03 05:59:50;;;;;;;51.97;29.73;;;;;;;;;;5070039;28;20567;-76
2023/11/03 06:02:18;;;;;;;24.67;15.87;;;;;;;;;;5069563;28;20220;-76
2023/11/03 06:04:44;;;;;;;20.57;14.77;;;;;;;;;;5070195;28;20258;-76
2023/11/03 06:07:13;;;;;;;17.93;14.30;;;;;;;;;;5069533;28;20205;-75
2023/11/03 06:09:40;;;;;;;21.03;13.93;;;;;;;;;;5070327;28;20197;-75
2023/11/03 06:12:07;;;;;;;14.77;11.13;;;;;;;;;;5069958;28;20216;-76
2023/11/03 06:14:34;;;;;;;15.10;10.87;;;;;;;;;;5071463;28;20212;-76
2023/11/03 06:17:01;;;;;;;14.37;10.60;;;;;;;;;;5074051;28;20208;-76
2023/11/03 06:19:27;;;;;;;11.83;9.47;;;;;;;;;;5074250;28;20646;-76
2023/11/03 06:21:54;;;;;;;14.10;10.70;;;;;;;;;;5073458;28;20225;-76
2023/11/03 06:24:22;;;;;;;14.37;10.73;;;;;;;;;;5074030;28;20209;-76
2023/11/03 06:26:49;;;;;;;12.33;10.73;;;;;;;;;;5073228;28;20209;-76
2023/11/03 06:29:16;;;;;;;15.30;10.80;;;;;;;;;;5073996;28;20642;-76
2023/11/03 06:31:42;;;;;;;11.83;10.40;;;;;;;;;;5072810;28;20204;-76
2023/11/03 06:34:09;;;;;;;12.63;10.50;;;;;;;;;;5073298;28;20676;-76
2023/11/03 06:36:37;;;;;;;12.87;10.53;;;;;;;;;;5073373;28;20212;-76
2023/11/03 06:39:04;;;;;;;13.07;11.33;;;;;;;;;;5073228;28;20641;-76
2023/11/03 06:41:32;;;;;;;12.33;10.77;;;;;;;;;;5073526;28;20225;-76
2023/11/03 06:44:01;;;;;;;13.70;12.30;;;;;;;;;;5073841;28;20194;-76
2023/11/03 06:46:28;;;;;;;17.23;10.63;;;;;;;;;;5072995;28;20267;-76
2023/11/03 06:48:55;;;;;;;13.50;12.07;;;;;;;;;;5073707;28;20200;-77
2023/11/03 06:51:21;;;;;;;15.53;13.00;;;;;;;;;;5072799;28;20235;-76
2023/11/03 06:53:48;;;;;;;14.00;12.30;;;;;;;;;;5073141;28;20254;-76
2023/11/03 06:56:15;;;;;;;13.33;11.17;;;;;;;;;;5073149;28;20228;-76
2023/11/03 06:58:43;;;;;;;13.23;10.10;;;;;;;;;;5073135;28;20215;-76
2023/11/03 07:01:10;;;;;;;12.43;10.80;;;;;;;;;;5072987;28;20609;-76
2023/11/03 07:03:37;;;;;;;11.50;10.13;;;;;;;;;;5073166;28;20217;-76
2023/11/03 07:06:04;;;;;;;12.20;10.67;;;;;;;;;;5073251;28;20197;-76
2023/11/03 07:08:31;;;;;;;13.03;11.47;;;;;;;;;;5072754;28;20259;-76
2023/11/03 07:10:59;;;;;;;15.73;12.67;;;;;;;;;;5073042;28;20227;-76
2023/11/03 07:13:28;;;;;;;14.30;12.87;;;;;;;;;;5073201;28;20204;-77
2023/11/03 07:15:57;;;;;;;14.37;11.80;;;;;;;;;;5072886;28;20200;-78
2023/11/03 07:18:25;;;;;;;14.67;11.60;;;;;;;;;;5072909;28;20201;-76
2023/11/03 07:20:51;;;;;;;16.47;14.03;;;;;;;;;;5072563;28;20201;-76
2023/11/03 07:23:21;;;;;;;16.27;14.20;;;;;;;;;;5072184;28;20225;-76
2023/11/03 07:25:50;;;;;;;13.10;11.53;;;;;;;;;;5058700;28;20194;-76
2023/11/03 07:28:17;;;;;;;13.30;11.90;;;;;;;;;;5072438;28;20709;-76
2023/11/03 07:30:44;;;;;;;12.70;11.47;;;;;;;;;;5072876;28;20253;-76
2023/11/03 07:33:12;;;;;;;12.23;10.80;;;;;;;;;;5072519;28;20255;-76
2023/11/03 07:35:39;;;;;;;12.03;10.23;;;;;;;;;;5072642;28;20640;-76
2023/11/03 07:38:06;;;;;;;26.70;19.93;;;;;;;;;;5072370;28;20200;-76
2023/11/03 07:40:32;;;;;;;11.87;10.17;;;;;;;;;;5072950;28;20232;-76
2023/11/03 07:42:59;;;;;;;39.10;24.77;;;;;;;;;;5071976;28;20761;-77
2023/11/03 07:45:28;;;;;;;14.97;12.43;;;;;;;;;;5072292;28;20205;-78
2023/11/03 07:47:54;;;;;;;10.47;9.40;;;;;;;;;;5072363;28;20205;-76
2023/11/03 07:50:23;;;;;;;13.07;10.93;;;;;;;;;;5072431;28;20228;-76
2023/11/03 07:52:49;;;;;;;12.17;10.50;;;;;;;;;;5072144;28;20209;-76
2023/11/03 07:55:16;;;;;;;12.97;10.20;;;;;;;;;;5071979;28;20211;-76
2023/11/03 07:57:43;;;;;;;12.23;10.17;;;;;;;;;;5071866;28;20197;-76
2023/11/03 08:00:12;;;;;;;12.10;9.27;;;;;;;;;;5072353;28;20683;-76
2023/11/03 08:02:38;;;;;;;10.77;8.37;;;;;;;;;;5071740;28;20221;-76
2023/11/03 08:05:06;;;;;;;11.13;8.13;;;;;;;;;;5071981;28;20197;-76
2023/11/03 08:07:35;;;;;;;13.60;10.83;;;;;;;;;;5071587;28;20197;-76
2023/11/03 08:10:03;;;;;;;10.53;8.80;;;;;;;;;;5072054;28;20289;-77
2023/11/03 08:12:30;;;;;;;13.13;9.03;;;;;;;;;;5071825;28;20588;-76
2023/11/03 08:14:57;;;;;;;9.37;8.37;;;;;;;;;;5071653;28;20683;-76
2023/11/03 08:17:24;;;;;;;10.40;9.07;;;;;;;;;;5057955;28;20197;-76
2023/11/03 08:19:51;;;;;;;13.27;9.30;;;;;;;;;;5071724;28;20201;-76
2023/11/03 08:22:18;;;;;;;13.97;9.47;;;;;;;;;;5071220;28;20274;-76
2023/11/03 08:24:46;;;;;;;10.60;9.10;;;;;;;;;;5071441;28;20200;-76
2023/11/03 08:27:14;;;;;;;15.50;9.87;;;;;;;;;;5071278;28;20201;-76
2023/11/03 08:29:40;;;;;;;11.40;10.20;;;;;;;;;;5071916;28;20228;-77
2023/11/03 08:32:10;;;;;;;25.40;21.57;;;;;;;;;;5070888;28;20213;-76
2023/11/03 08:34:37;;;;;;;12.87;11.40;;;;;;;;;;5071350;28;20197;-76
2023/11/03 08:37:04;;;;;;;10.40;8.73;;;;;;;;;;5070834;28;20675;-76
2023/11/03 08:39:31;;;;;;;10.20;9.03;;;;;;;;;;5071616;28;20209;-77
2023/11/03 08:42:02;;;;;;;16.80;14.83;;;;;;;;;;5071114;28;20216;-76
2023/11/03 08:44:29;;;;;;;12.30;10.93;;;;;;;;;;5071448;28;20232;-76
2023/11/03 08:46:55;;;;;;;16.00;10.10;;;;;;;;;;5070985;28;20664;-76
2023/11/03 08:49:23;;;;;;;16.07;11.57;;;;;;;;;;5071344;28;20194;-76
2023/11/03 08:51:51;;;;;;;14.17;11.00;;;;;;;;;;5071383;28;20221;-76
2023/11/03 08:54:18;;;;;;;12.93;11.53;;;;;;;;;;5070575;28;20687;-76
2023/11/03 08:56:44;;;;;;;14.17;11.97;;;;;;;;;;5070868;28;20208;-76
2023/11/03 08:59:13;;;;;;;18.83;15.80;;;;;;;;;;5071309;28;20207;-76
2023/11/03 09:01:42;;;;;;;25.43;18.27;;;;;;;;;;5062049;28;20700;-77
2023/11/03 09:04:10;;;;;;;16.67;15.07;;;;;;;;;;5066322;28;20696;-76
2023/11/03 09:06:37;;;;;;;18.40;13.37;;;;;;;;;;5070745;28;20209;-76
2023/11/03 09:09:04;;;;;;;15.23;13.67;;;;;;;;;;5071102;28;20229;-76
2023/11/03 09:11:31;;;;;;;15.63;13.83;;;;;;;;;;5070859;28;20216;-77
2023/11/03 09:13:59;;;;;;;14.70;13.20;;;;;;;;;;5070675;28;20296;-76
2023/11/03 09:16:27;;;;;;;14.57;12.93;;;;;;;;;;5070983;28;20197;-76
2023/11/03 09:18:55;;;;;;;16.57;14.77;;;;;;;;;;5070591;28;20204;-76
2023/11/03 09:21:22;;;;;;;17.73;14.90;;;;;;;;;;5070766;28;20228;-76
2023/11/03 09:23:48;;;;;;;18.80;15.40;;;;;;;;;;5070393;28;20225;-76
2023/11/03 09:26:15;;;;;;;16.90;13.53;;;;;;;;;;5070449;28;20211;-76
2023/11/03 09:28:43;;;;;;;19.07;15.60;;;;;;;;;;5070432;28;20675;-76
2023/11/03 09:31:10;;;;;;;14.53;13.00;;;;;;;;;;5070658;28;20675;-77
2023/11/03 09:33:38;;;;;;;15.20;13.30;;;;;;;;;;5070711;28;20193;-76
2023/11/03 09:36:05;;;;;;;15.00;11.80;;;;;;;;;;5070516;28;20635;-76
2023/11/03 09:38:32;;;;;;;13.40;11.17;;;;;;;;;;5070267;28;20197;-76
2023/11/03 09:40:59;;;;;;;22.57;18.70;;;;;;;;;;5070675;28;20205;-76
2023/11/03 09:43:29;;;;;;;15.33;12.83;;;;;;;;;;5070329;28;20703;-76
2023/11/03 09:45:57;;;;;;;14.47;11.97;;;;;;;;;;5070602;28;20205;-77
2023/11/03 09:48:26;;;;;;;13.20;11.40;;;;;;;;;;5070342;28;20197;-76
2023/11/03 09:50:55;;;;;;;12.93;10.03;;;;;;;;;;5074430;28;20228;-76
2023/11/03 09:53:25;;;;;;;20.50;14.70;;;;;;;;;;5061890;28;20204;-76
2023/11/03 09:55:53;;;;;;;12.67;11.37;;;;;;;;;;5074162;28;20243;-76
2023/11/03 09:58:19;;;;;;;10.93;9.43;;;;;;;;;;5074099;28;20588;-76
2023/11/03 10:00:46;;;;;;;12.70;9.83;;;;;;;;;;5074112;28;20210;-76
2023/11/03 10:03:13;;;;;;;12.77;10.57;;;;;;;;;;5074469;28;20229;-76
2023/11/03 10:05:40;;;;;;;11.27;9.77;;;;;;;;;;5074191;28;20563;-76
2023/11/03 10:08:11;;;;;;;12.70;11.07;;;;;;;;;;5073822;28;20208;-77
2023/11/03 10:10:39;;;;;;;11.90;9.83;;;;;;;;;;5074774;28;20228;-76
2023/11/03 10:13:09;;;;;;;13.10;10.70;;;;;;;;;;5073927;28;20635;-76
2023/11/03 10:15:37;;;;;;;11.83;9.30;;;;;;;;;;5073608;28;20203;-76
2023/11/03 10:18:03;;;;;;;10.50;7.93;;;;;;;;;;5073864;28;20252;-76
2023/11/03 10:20:30;;;;;;;10.47;7.93;;;;;;;;;;5073908;28;20561;-76
2023/11/03 10:22:57;;;;;;;9.03;8.20;;;;;;;;;;5073487;28;20697;-76
2023/11/03 10:25:26;;;;;;;9.73;7.43;;;;;;;;;;5073927;28;20276;-76
2023/11/03 10:27:54;;;;;;;9.73;8.80;;;;;;;;;;5074058;28;20234;-76
2023/11/03 10:30:21;;;;;;;8.87;8.00;;;;;;;;;;5074031;28;20255;-76
2023/11/03 10:32:48;;;;;;;11.00;8.10;;;;;;;;;;5073864;28;20202;-76
2023/11/03 10:35:15;;;;;;;8.93;7.87;;;;;;;;;;5073252;28;20206;-76
2023/11/03 10:37:43;;;;;;;9.23;8.10;;;;;;;;;;5073453;28;20206;-76
2023/11/03 10:40:12;;;;;;;14.17;8.23;;;;;;;;;;5073511;28;20698;-76
2023/11/03 10:42:43;;;;;;;8.30;7.07;;;;;;;;;;5073580;28;20633;-76
2023/11/03 10:45:10;;;;;;;6.90;6.20;;;;;;;;;;5073411;28;20202;-76
2023/11/03 10:47:42;;;;;;;7.50;6.80;;;;;;;;;;5074004;28;20202;-76
2023/11/03 10:50:10;;;;;;;7.93;7.13;;;;;;;;;;5060870;28;20239;-76
2023/11/03 10:52:41;;;;;;;9.63;7.27;;;;;;;;;;5072539;28;20215;-77
2023/11/03 10:55:13;;;;;;;12.83;6.83;;;;;;;;;;5073199;28;20687;-76
2023/11/03 10:57:41;;;;;;;10.63;8.00;;;;;;;;;;5073304;28;20265;-77
2023/11/03 11:00:12;;;;;;;8.60;7.70;;;;;;;;;;5073160;28;20213;-77
2023/11/03 11:02:53;;;;;;;11.10;8.53;;;;;;;;;;5072965;28;20201;-76
2023/11/03 11:05:24;;;;;;;11.00;8.13;;;;;;;;;;5072942;28;20288;-77
2023/11/03 11:07:56;;;;;;;11.53;7.57;;;;;;;;;;5072805;28;20233;-76
2023/11/03 11:10:39;;;;;;;13.53;9.93;;;;;;;;;;5073421;28;20289;-77
2023/11/03 11:13:14;;;;;;;12.10;8.33;;;;;;;;;;5061807;28;20200;-77
2023/11/03 11:15:44;;;;;;;8.33;7.53;;;;;;;;;;5072930;28;20258;-76
2023/11/03 11:18:15;;;;;;;14.13;7.53;;;;;;;;;;5072516;28;20691;-76
2023/11/03 11:20:50;;;;;;;9.10;7.47;;;;;;;;;;5072830;28;20197;-76
2023/11/03 11:23:19;;;;;;;7.87;6.77;;;;;;;;;;5072895;28;20247;-76
2023/11/03 11:25:49;;;;;;;9.40;6.50;;;;;;;;;;5072681;28;20204;-76
2023/11/03 11:28:35;;;;;;;9.77;7.13;;;;;;;;;;5072535;28;20288;-77
2023/11/03 11:31:41;;;;;;;8.47;7.03;;;;;;;;;;5073138;28;20197;-76
2023/11/03 11:34:12;;;;;;;9.67;6.60;;;;;;;;;;5060919;28;20639;-77
2023/11/03 11:36:40;;;;;;;8.73;6.93;;;;;;;;;;5073006;28;20197;-77
2023/11/03 11:39:16;;;;;;;11.80;8.27;;;;;;;;;;5072674;28;20240;-76
2023/11/03 11:41:51;;;;;;;8.80;7.40;;;;;;;;;;5072090;28;20215;-76
2023/11/03 11:44:21;;;;;;;8.93;6.50;;;;;;;;;;5072586;28;20232;-76
2023/11/03 11:46:56;;;;;;;9.33;8.33;;;;;;;;;;5072040;28;20201;-77
2023/11/03 11:49:24;;;;;;;9.03;7.40;;;;;;;;;;5072355;28;20203;-77
2023/11/03 11:51:52;;;;;;;8.70;7.20;;;;;;;;;;5072240;28;20316;-76
2023/11/03 11:54:19;;;;;;;7.07;6.37;;;;;;;;;;5072363;28;20201;-77
2023/11/03 11:56:47;;;;;;;7.77;7.00;;;;;;;;;;5071861;28;20614;-77
2023/11/03 11:59:17;;;;;;;10.03;8.33;;;;;;;;;;5071905;28;20201;-77
2023/11/03 12:01:46;;;;;;;13.40;7.93;;;;;;;;;;5072093;28;20215;-77
2023/11/03 12:04:13;;;;;;;8.97;8.03;;;;;;;;;;5071597;28;20658;-77
2023/11/03 12:06:41;;;;;;;8.30;6.93;;;;;;;;;;5071669;28;20605;-77
2023/11/03 12:09:09;;;;;;;9.97;8.80;;;;;;;;;;5071884;28;20239;-77
2023/11/03 12:11:37;;;;;;;9.03;8.17;;;;;;;;;;5071617;28;20209;-77
2023/11/03 12:14:04;;;;;;;9.27;8.27;;;;;;;;;;5071531;28;20194;-77
2023/11/03 12:16:30;;;;;;;12.10;8.63;;;;;;;;;;5071872;28;20208;-77
2023/11/03 12:18:59;;;;;;;9.33;7.50;;;;;;;;;;5071561;28;20205;-77
2023/11/03 12:21:25;;;;;;;9.80;8.17;;;;;;;;;;5071461;28;20205;-77
2023/11/03 12:23:53;;;;;;;10.60;8.53;;;;;;;;;;5071541;28;20225;-77
2023/11/03 12:26:20;;;;;;;9.60;8.67;;;;;;;;;;5071462;28;20208;-77
2023/11/03 12:28:47;;;;;;;9.90;8.90;;;;;;;;;;5071492;28;20219;-76
2023/11/03 12:31:13;;;;;;;8.87;7.87;;;;;;;;;;5071432;28;20621;-77
2023/11/03 12:33:41;;;;;;;11.77;8.90;;;;;;;;;;5071335;28;20227;-77
2023/11/03 12:36:14;;;;;;;11.67;8.37;;;;;;;;;;5071163;28;20232;-77
2023/11/03 12:38:44;;;;;;;10.20;8.87;;;;;;;;;;5071997;28;20213;-77
2023/11/03 12:41:13;;;;;;;9.63;8.40;;;;;;;;;;5071114;28;20247;-77
2023/11/03 12:43:41;;;;;;;9.93;7.70;;;;;;;;;;5070977;28;20239;-77
2023/11/03 12:46:09;;;;;;;12.23;9.23;;;;;;;;;;5071010;28;20673;-78
2023/11/03 12:48:36;;;;;;;9.80;8.07;;;;;;;;;;5063858;28;20209;-77
2023/11/03 12:51:03;;;;;;;10.17;8.50;;;;;;;;;;5065547;28;20230;-77
2023/11/03 12:53:31;;;;;;;8.33;7.37;;;;;;;;;;5070801;28;20212;-77
2023/11/03 12:55:59;;;;;;;9.37;8.47;;;;;;;;;;5071075;28;20232;-77
2023/11/03 12:58:26;;;;;;;10.37;8.27;;;;;;;;;;5070901;28;20212;-77
2023/11/03 13:00:56;;;;;;;8.17;7.23;;;;;;;;;;5070991;28;20619;-77
2023/11/03 13:03:23;;;;;;;8.10;7.30;;;;;;;;;;5070564;28;20225;-77
2023/11/03 13:05:50;;;;;;;9.03;7.73;;;;;;;;;;5070699;28;20304;-77
2023/11/03 13:08:18;;;;;;;9.70;7.57;;;;;;;;;;5070743;28;20288;-77
2023/11/03 13:10:48;;;;;;;10.53;8.97;;;;;;;;;;5070747;28;20256;-77
2023/11/03 13:13:14;;;;;;;10.60;8.37;;;;;;;;;;5070887;28;20201;-77
2023/11/03 13:15:41;;;;;;;9.43;7.33;;;;;;;;;;5070626;28;20732;-77
2023/11/03 13:18:10;;;;;;;9.10;7.07;;;;;;;;;;5070761;28;20594;-76
2023/11/03 13:20:37;;;;;;;8.40;6.33;;;;;;;;;;5070618;28;20193;-77
2023/11/03 13:23:07;;;;;;;11.33;6.70;;;;;;;;;;5070068;28;20215;-77
2023/11/03 13:25:34;;;;;;;11.47;6.60;;;;;;;;;;5070074;28;20193;-77
2023/11/03 13:28:02;;;;;;;7.27;6.03;;;;;;;;;;5070500;28;20212;-77
2023/11/03 13:30:29;;;;;;;6.03;5.53;;;;;;;;;;5070783;28;20633;-77
2023/11/03 13:32:56;;;;;;;5.60;5.13;;;;;;;;;;5070353;28;20639;-77
2023/11/03 13:35:41;;;;;;;24.27;12.53;;;;;;;;;;5057771;28;20213;-77
2023/11/03 13:38:08;;;;;;;12.10;8.23;;;;;;;;;;5070474;28;20702;-77
2023/11/03 13:40:36;;;;;;;25.83;15.37;;;;;;;;;;5070569;28;20702;-77
2023/11/03 13:43:05;;;;;;;44.80;22.13;;;;;;;;;;5069906;28;20205;-77
2023/11/03 13:45:32;;;;;;;18.27;11.37;;;;;;;;;;5070633;28;20263;-77
2023/11/03 13:47:59;;;;;;;7.13;5.37;;;;;;;;;;5070109;28;20205;-77
2023/11/03 13:50:26;;;;;;;23.40;7.40;;;;;;;;;;5070532;28;20228;-77
2023/11/03 13:52:53;;;;;;;8.50;4.77;;;;;;;;;;5070239;28;20208;-77
2023/11/03 13:55:20;;;;;;;9.50;5.43;;;;;;;;;;5070868;28;20648;-77
2023/11/03 13:57:48;;;;;;;7.30;5.30;;;;;;;;;;5070343;28;20254;-77
2023/11/03 14:00:17;;;;;;;11.03;6.47;;;;;;;;;;5070342;28;20648;-77
2023/11/03 14:02:44;;;;;;;6.70;4.90;;;;;;;;;;5069947;28;20638;-77
2023/11/03 14:05:11;;;;;;;7.87;6.93;;;;;;;;;;5070351;28;20315;-79
2023/11/03 14:07:39;;;;;;;7.23;5.53;;;;;;;;;;5070463;28;20239;-77
2023/11/03 14:10:08;;;;;;;5.00;4.33;;;;;;;;;;5070163;28;20201;-77
2023/11/03 14:12:38;;;;;;;8.97;5.57;;;;;;;;;;5070379;28;20288;-77
2023/11/03 14:15:07;;;;;;;14.87;12.43;;;;;;;;;;5070159;28;20201;-77
2023/11/03 14:17:35;;;;;;;16.23;10.77;;;;;;;;;;5070192;28;20274;-77
2023/11/03 14:20:03;;;;;;;20.37;17.10;;;;;;;;;;5070055;28;20208;-78
2023/11/03 14:22:30;;;;;;;11.40;10.20;;;;;;;;;;5057078;28;20224;-77
2023/11/03 14:24:58;;;;;;;8.33;5.97;;;;;;;;;;5070005;28;20229;-77
2023/11/03 14:27:25;;;;;;;10.97;9.23;;;;;;;;;;5069701;28;20251;-77
2023/11/03 14:29:53;;;;;;;8.63;6.43;;;;;;;;;;5069958;28;20239;-77
2023/11/03 14:32:20;;;;;;;12.07;6.57;;;;;;;;;;5069984;28;20595;-77